sensor_id;sensor_type;location;lat;lon;timestamp;P1;durP1;ratioP1;P2;durP2;ratioP2
2386;SDS011;49473;50.772;8.768;2023-01-26T00:02:09;16.00;;;8.20;;
2386;SDS011;49473;50.772;8.768;2023-01-26T00:04:36;9.03;;;6.90;;
2386;SDS011;49473;50.772;8.768;2023-01-26T00:07:03;8.33;;;7.53;;
2386;SDS011;49473;50.772;8.768;2023-01-26T00:09:29;7.50;;;5.63;;
2386;SDS011;49473;50.772;8.768;2023-01-26T00:11:56;8.13;;;7.30;;
2386;SDS011;49473;50.772;8.768;2023-01-26T00:14:23;7.83;;;6.43;;
2386;SDS011;49473;50.772;8.768;2023-01-26T00:16:51;8.33;;;7.23;;
2386;SDS011;49473;50.772;8.768;2023-01-26T00:19:18;10.50;;;8.30;;
2386;SDS011;49473;50.772;8.768;2023-01-26T00:21:45;11.17;;;8.47;;
2386;SDS011;49473;50.772;8.768;2023-01-26T00:24:11;11.40;;;8.00;;
2386;SDS011;49473;50.772;8.768;2023-01-26T00:26:38;9.80;;;8.67;;
2386;SDS011;49473;50.772;8.768;2023-01-26T00:29:05;11.23;;;8.80;;
2386;SDS011;49473;50.772;8.768;2023-01-26T00:31:31;10.97;;;8.30;;
2386;SDS011;49473;50.772;8.768;2023-01-26T00:34:00;11.57;;;9.80;;
2386;SDS011;49473;50.772;8.768;2023-01-26T00:36:26;9.90;;;8.37;;
2386;SDS011;49473;50.772;8.768;2023-01-26T00:38:53;12.07;;;8.77;;
2386;SDS011;49473;50.772;8.768;2023-01-26T00:41:20;9.23;;;8.23;;
2386;SDS011;49473;50.772;8.768;2023-01-26T00:44:04;9.17;;;7.90;;
2386;SDS011;49473;50.772;8.768;2023-01-26T00:46:31;9.03;;;8.10;;
2386;SDS011;49473;50.772;8.768;2023-01-26T00:48:57;11.27;;;8.10;;
2386;SDS011;49473;50.772;8.768;2023-01-26T00:51:26;9.30;;;7.60;;
2386;SDS011;49473;50.772;8.768;2023-01-26T00:53:52;10.77;;;7.83;;
2386;SDS011;49473;50.772;8.768;2023-01-26T00:56:19;12.23;;;9.20;;
2386;SDS011;49473;50.772;8.768;2023-01-26T00:58:46;9.47;;;8.20;;
2386;SDS011;49473;50.772;8.768;2023-01-26T01:01:12;10.23;;;9.10;;
2386;SDS011;49473;50.772;8.768;2023-01-26T01:03:39;9.60;;;8.10;;
2386;SDS011;49473;50.772;8.768;2023-01-26T01:06:07;10.30;;;7.50;;
2386;SDS011;49473;50.772;8.768;2023-01-26T01:08:34;8.30;;;7.00;;
2386;SDS011;49473;50.772;8.768;2023-01-26T01:11:01;9.80;;;8.27;;
2386;SDS011;49473;50.772;8.768;2023-01-26T01:13:30;11.40;;;8.90;;
2386;SDS011;49473;50.772;8.768;2023-01-26T01:15:57;10.50;;;8.70;;
2386;SDS011;49473;50.772;8.768;2023-01-26T01:18:23;10.13;;;8.53;;
2386;SDS011;49473;50.772;8.768;2023-01-26T01:20:50;11.60;;;9.00;;
2386;SDS011;49473;50.772;8.768;2023-01-26T01:23:18;9.30;;;8.33;;
2386;SDS011;49473;50.772;8.768;2023-01-26T01:25:45;10.50;;;9.30;;
2386;SDS011;49473;50.772;8.768;2023-01-26T01:28:12;11.03;;;8.53;;
2386;SDS011;49473;50.772;8.768;2023-01-26T01:30:38;10.17;;;8.47;;
2386;SDS011;49473;50.772;8.768;2023-01-26T01:33:05;10.50;;;8.10;;
2386;SDS011;49473;50.772;8.768;2023-01-26T01:35:32;7.63;;;6.83;;
2386;SDS011;49473;50.772;8.768;2023-01-26T01:37:59;8.70;;;7.10;;
2386;SDS011;49473;50.772;8.768;2023-01-26T01:40:28;8.70;;;6.47;;
2386;SDS011;49473;50.772;8.768;2023-01-26T01:42:55;7.83;;;7.03;;
2386;SDS011;49473;50.772;8.768;2023-01-26T01:45:36;9.10;;;7.20;;
2386;SDS011;49473;50.772;8.768;2023-01-26T01:48:11;8.83;;;7.50;;
2386;SDS011;49473;50.772;8.768;2023-01-26T01:50:42;9.77;;;7.67;;
2386;SDS011;49473;50.772;8.768;2023-01-26T01:53:10;7.90;;;7.10;;
2386;SDS011;49473;50.772;8.768;2023-01-26T01:55:43;9.00;;;7.40;;
2386;SDS011;49473;50.772;8.768;2023-01-26T01:58:11;7.63;;;6.20;;
2386;SDS011;49473;50.772;8.768;2023-01-26T02:00:38;9.30;;;7.07;;
2386;SDS011;49473;50.772;8.768;2023-01-26T02:03:06;8.97;;;6.60;;
2386;SDS011;49473;50.772;8.768;2023-01-26T02:05:40;8.40;;;7.10;;
2386;SDS011;49473;50.772;8.768;2023-01-26T02:08:15;9.43;;;7.27;;
2386;SDS011;49473;50.772;8.768;2023-01-26T02:10:45;7.50;;;6.13;;
2386;SDS011;49473;50.772;8.768;2023-01-26T02:13:14;7.77;;;6.97;;
2386;SDS011;49473;50.772;8.768;2023-01-26T02:15:42;9.60;;;7.17;;
2386;SDS011;49473;50.772;8.768;2023-01-26T02:18:09;7.43;;;6.63;;
2386;SDS011;49473;50.772;8.768;2023-01-26T02:20:39;9.13;;;7.10;;
2386;SDS011;49473;50.772;8.768;2023-01-26T02:23:13;7.50;;;6.70;;
2386;SDS011;49473;50.772;8.768;2023-01-26T02:26:03;9.20;;;7.30;;
2386;SDS011;49473;50.772;8.768;2023-01-26T02:28:31;10.20;;;6.50;;
2386;SDS011;49473;50.772;8.768;2023-01-26T02:30:57;9.27;;;7.10;;
2386;SDS011;49473;50.772;8.768;2023-01-26T02:33:26;8.43;;;6.33;;
2386;SDS011;49473;50.772;8.768;2023-01-26T02:35:54;6.77;;;6.00;;
2386;SDS011;49473;50.772;8.768;2023-01-26T02:38:21;8.60;;;7.20;;
2386;SDS011;49473;50.772;8.768;2023-01-26T02:40:51;8.63;;;6.80;;
2386;SDS011;49473;50.772;8.768;2023-01-26T02:43:22;6.93;;;5.40;;
2386;SDS011;49473;50.772;8.768;2023-01-26T02:45:50;7.83;;;6.97;;
2386;SDS011;49473;50.772;8.768;2023-01-26T02:48:17;6.13;;;5.50;;
2386;SDS011;49473;50.772;8.768;2023-01-26T02:51:04;7.00;;;6.30;;
2386;SDS011;49473;50.772;8.768;2023-01-26T02:53:30;5.97;;;5.40;;
2386;SDS011;49473;50.772;8.768;2023-01-26T02:55:57;8.07;;;6.10;;
2386;SDS011;49473;50.772;8.768;2023-01-26T02:58:24;7.60;;;6.80;;
2386;SDS011;49473;50.772;8.768;2023-01-26T03:00:51;7.83;;;6.60;;
2386;SDS011;49473;50.772;8.768;2023-01-26T03:03:18;7.87;;;6.70;;
2386;SDS011;49473;50.772;8.768;2023-01-26T03:05:48;7.60;;;6.80;;
2386;SDS011;49473;50.772;8.768;2023-01-26T03:08:15;8.10;;;6.53;;
2386;SDS011;49473;50.772;8.768;2023-01-26T03:10:41;7.80;;;6.77;;
2386;SDS011;49473;50.772;8.768;2023-01-26T03:13:08;7.50;;;6.80;;
2386;SDS011;49473;50.772;8.768;2023-01-26T03:15:36;7.90;;;7.10;;
2386;SDS011;49473;50.772;8.768;2023-01-26T03:18:16;8.17;;;6.53;;
2386;SDS011;49473;50.772;8.768;2023-01-26T03:21:01;8.67;;;7.10;;
2386;SDS011;49473;50.772;8.768;2023-01-26T03:23:47;8.20;;;7.37;;
2386;SDS011;49473;50.772;8.768;2023-01-26T03:26:31;7.63;;;6.63;;
2386;SDS011;49473;50.772;8.768;2023-01-26T03:29:15;7.23;;;6.50;;
2386;SDS011;49473;50.772;8.768;2023-01-26T03:31:44;9.37;;;7.90;;
2386;SDS011;49473;50.772;8.768;2023-01-26T03:34:10;7.97;;;7.17;;
2386;SDS011;49473;50.772;8.768;2023-01-26T03:36:37;8.67;;;7.77;;
2386;SDS011;49473;50.772;8.768;2023-01-26T03:39:04;7.53;;;6.23;;
2386;SDS011;49473;50.772;8.768;2023-01-26T03:41:30;11.97;;;7.07;;
2386;SDS011;49473;50.772;8.768;2023-01-26T03:44:15;7.10;;;6.50;;
2386;SDS011;49473;50.772;8.768;2023-01-26T03:47:00;7.80;;;7.10;;
2386;SDS011;49473;50.772;8.768;2023-01-26T03:49:45;9.87;;;8.10;;
2386;SDS011;49473;50.772;8.768;2023-01-26T03:52:30;8.23;;;7.40;;
2386;SDS011;49473;50.772;8.768;2023-01-26T03:55:14;7.20;;;6.50;;
2386;SDS011;49473;50.772;8.768;2023-01-26T03:57:59;7.23;;;6.47;;
2386;SDS011;49473;50.772;8.768;2023-01-26T04:00:26;7.63;;;6.87;;
2386;SDS011;49473;50.772;8.768;2023-01-26T04:02:55;9.77;;;7.40;;
2386;SDS011;49473;50.772;8.768;2023-01-26T04:05:39;7.20;;;6.47;;
2386;SDS011;49473;50.772;8.768;2023-01-26T04:08:23;7.23;;;6.50;;
2386;SDS011;49473;50.772;8.768;2023-01-26T04:10:51;7.90;;;6.97;;
2386;SDS011;49473;50.772;8.768;2023-01-26T04:13:18;9.50;;;7.17;;
2386;SDS011;49473;50.772;8.768;2023-01-26T04:16:03;8.17;;;7.20;;
2386;SDS011;49473;50.772;8.768;2023-01-26T04:18:49;7.90;;;7.10;;
2386;SDS011;49473;50.772;8.768;2023-01-26T04:21:33;8.23;;;6.60;;
2386;SDS011;49473;50.772;8.768;2023-01-26T04:24:01;9.87;;;7.30;;
2386;SDS011;49473;50.772;8.768;2023-01-26T04:26:33;8.13;;;7.30;;
2386;SDS011;49473;50.772;8.768;2023-01-26T04:29:01;9.37;;;7.80;;
2386;SDS011;49473;50.772;8.768;2023-01-26T04:31:29;10.50;;;8.53;;
2386;SDS011;49473;50.772;8.768;2023-01-26T04:33:57;9.57;;;7.73;;
2386;SDS011;49473;50.772;8.768;2023-01-26T04:36:24;8.43;;;7.50;;
2386;SDS011;49473;50.772;8.768;2023-01-26T04:38:51;8.80;;;7.87;;
2386;SDS011;49473;50.772;8.768;2023-01-26T04:41:18;9.90;;;8.23;;
2386;SDS011;49473;50.772;8.768;2023-01-26T04:43:45;10.43;;;8.90;;
2386;SDS011;49473;50.772;8.768;2023-01-26T04:46:12;8.90;;;7.90;;
2386;SDS011;49473;50.772;8.768;2023-01-26T04:48:39;8.00;;;7.20;;
2386;SDS011;49473;50.772;8.768;2023-01-26T04:51:08;10.20;;;8.17;;
2386;SDS011;49473;50.772;8.768;2023-01-26T04:53:38;8.40;;;7.20;;
2386;SDS011;49473;50.772;8.768;2023-01-26T04:56:05;9.30;;;7.70;;
2386;SDS011;49473;50.772;8.768;2023-01-26T04:58:33;11.23;;;8.43;;
2386;SDS011;49473;50.772;8.768;2023-01-26T05:00:59;11.00;;;8.37;;
2386;SDS011;49473;50.772;8.768;2023-01-26T05:03:26;10.60;;;9.00;;
2386;SDS011;49473;50.772;8.768;2023-01-26T05:05:53;10.57;;;9.23;;
2386;SDS011;49473;50.772;8.768;2023-01-26T05:08:21;8.83;;;7.93;;
2386;SDS011;49473;50.772;8.768;2023-01-26T05:10:48;7.57;;;6.87;;
2386;SDS011;49473;50.772;8.768;2023-01-26T05:13:16;9.07;;;7.77;;
2386;SDS011;49473;50.772;8.768;2023-01-26T05:15:43;10.27;;;8.80;;
2386;SDS011;49473;50.772;8.768;2023-01-26T05:18:09;9.30;;;7.70;;
2386;SDS011;49473;50.772;8.768;2023-01-26T05:20:36;9.03;;;8.07;;
2386;SDS011;49473;50.772;8.768;2023-01-26T05:23:03;9.47;;;7.90;;
2386;SDS011;49473;50.772;8.768;2023-01-26T05:25:32;8.30;;;7.03;;
2386;SDS011;49473;50.772;8.768;2023-01-26T05:27:58;10.63;;;8.37;;
2386;SDS011;49473;50.772;8.768;2023-01-26T05:30:25;10.90;;;8.23;;
2386;SDS011;49473;50.772;8.768;2023-01-26T05:32:52;10.00;;;7.60;;
2386;SDS011;49473;50.772;8.768;2023-01-26T05:35:19;8.37;;;7.57;;
2386;SDS011;49473;50.772;8.768;2023-01-26T05:37:45;9.57;;;7.43;;
2386;SDS011;49473;50.772;8.768;2023-01-26T05:40:12;11.60;;;8.97;;
2386;SDS011;49473;50.772;8.768;2023-01-26T05:42:41;8.93;;;7.37;;
2386;SDS011;49473;50.772;8.768;2023-01-26T05:45:08;10.40;;;8.10;;
2386;SDS011;49473;50.772;8.768;2023-01-26T05:47:35;9.87;;;8.03;;
2386;SDS011;49473;50.772;8.768;2023-01-26T05:50:02;11.80;;;7.40;;
2386;SDS011;49473;50.772;8.768;2023-01-26T05:52:30;8.80;;;7.60;;
2386;SDS011;49473;50.772;8.768;2023-01-26T05:54:57;9.73;;;8.10;;
2386;SDS011;49473;50.772;8.768;2023-01-26T05:57:23;9.77;;;7.47;;
2386;SDS011;49473;50.772;8.768;2023-01-26T05:59:51;10.83;;;8.30;;
2386;SDS011;49473;50.772;8.768;2023-01-26T06:02:18;11.20;;;8.60;;
2386;SDS011;49473;50.772;8.768;2023-01-26T06:04:45;12.53;;;8.50;;
2386;SDS011;49473;50.772;8.768;2023-01-26T06:07:12;10.33;;;7.60;;
2386;SDS011;49473;50.772;8.768;2023-01-26T06:09:39;10.40;;;9.10;;
2386;SDS011;49473;50.772;8.768;2023-01-26T06:12:11;10.00;;;7.60;;
2386;SDS011;49473;50.772;8.768;2023-01-26T06:14:41;10.93;;;8.90;;
2386;SDS011;49473;50.772;8.768;2023-01-26T06:17:09;11.50;;;7.93;;
2386;SDS011;49473;50.772;8.768;2023-01-26T06:19:36;13.57;;;10.13;;
2386;SDS011;49473;50.772;8.768;2023-01-26T06:22:03;12.27;;;9.23;;
2386;SDS011;49473;50.772;8.768;2023-01-26T06:24:32;11.10;;;8.50;;
2386;SDS011;49473;50.772;8.768;2023-01-26T06:26:59;12.00;;;8.83;;
2386;SDS011;49473;50.772;8.768;2023-01-26T06:29:26;12.30;;;9.17;;
2386;SDS011;49473;50.772;8.768;2023-01-26T06:31:53;13.40;;;10.17;;
2386;SDS011;49473;50.772;8.768;2023-01-26T06:34:21;12.13;;;8.67;;
2386;SDS011;49473;50.772;8.768;2023-01-26T06:36:48;14.27;;;9.67;;
2386;SDS011;49473;50.772;8.768;2023-01-26T06:39:15;13.23;;;10.33;;
2386;SDS011;49473;50.772;8.768;2023-01-26T06:41:42;11.37;;;8.90;;
2386;SDS011;49473;50.772;8.768;2023-01-26T06:44:09;11.57;;;9.60;;
2386;SDS011;49473;50.772;8.768;2023-01-26T06:46:36;13.60;;;9.80;;
2386;SDS011;49473;50.772;8.768;2023-01-26T06:49:04;14.00;;;9.90;;
2386;SDS011;49473;50.772;8.768;2023-01-26T06:51:43;12.00;;;8.93;;
2386;SDS011;49473;50.772;8.768;2023-01-26T06:54:12;12.57;;;9.60;;
2386;SDS011;49473;50.772;8.768;2023-01-26T06:56:40;14.90;;;9.40;;
2386;SDS011;49473;50.772;8.768;2023-01-26T06:59:07;11.40;;;8.50;;
2386;SDS011;49473;50.772;8.768;2023-01-26T07:01:35;13.07;;;10.03;;
2386;SDS011;49473;50.772;8.768;2023-01-26T07:04:04;11.57;;;8.80;;
2386;SDS011;49473;50.772;8.768;2023-01-26T07:06:31;15.40;;;10.00;;
2386;SDS011;49473;50.772;8.768;2023-01-26T07:08:59;12.97;;;8.97;;
2386;SDS011;49473;50.772;8.768;2023-01-26T07:11:26;12.33;;;10.10;;
2386;SDS011;49473;50.772;8.768;2023-01-26T07:13:54;14.97;;;11.40;;
2386;SDS011;49473;50.772;8.768;2023-01-26T07:16:21;13.33;;;9.93;;
2386;SDS011;49473;50.772;8.768;2023-01-26T07:18:48;13.87;;;9.43;;
2386;SDS011;49473;50.772;8.768;2023-01-26T07:21:16;12.27;;;9.63;;
2386;SDS011;49473;50.772;8.768;2023-01-26T07:23:43;12.17;;;9.90;;
2386;SDS011;49473;50.772;8.768;2023-01-26T07:26:11;11.00;;;8.20;;
2386;SDS011;49473;50.772;8.768;2023-01-26T07:28:38;10.33;;;8.50;;
2386;SDS011;49473;50.772;8.768;2023-01-26T07:31:05;12.20;;;7.97;;
2386;SDS011;49473;50.772;8.768;2023-01-26T07:33:33;12.83;;;8.80;;
2386;SDS011;49473;50.772;8.768;2023-01-26T07:36:00;11.93;;;9.37;;
2386;SDS011;49473;50.772;8.768;2023-01-26T07:38:28;13.30;;;9.60;;
2386;SDS011;49473;50.772;8.768;2023-01-26T07:40:55;12.33;;;9.10;;
2386;SDS011;49473;50.772;8.768;2023-01-26T07:43:23;11.43;;;7.90;;
2386;SDS011;49473;50.772;8.768;2023-01-26T07:45:51;13.07;;;9.23;;
2386;SDS011;49473;50.772;8.768;2023-01-26T07:48:19;8.93;;;8.00;;
2386;SDS011;49473;50.772;8.768;2023-01-26T07:50:48;15.00;;;10.60;;
2386;SDS011;49473;50.772;8.768;2023-01-26T07:53:15;11.23;;;9.07;;
2386;SDS011;49473;50.772;8.768;2023-01-26T07:55:45;12.93;;;9.90;;
2386;SDS011;49473;50.772;8.768;2023-01-26T07:58:12;14.27;;;9.93;;
2386;SDS011;49473;50.772;8.768;2023-01-26T08:00:40;11.93;;;9.40;;
2386;SDS011;49473;50.772;8.768;2023-01-26T08:03:07;11.47;;;8.80;;
2386;SDS011;49473;50.772;8.768;2023-01-26T08:05:33;13.57;;;9.73;;
2386;SDS011;49473;50.772;8.768;2023-01-26T08:08:02;15.17;;;11.27;;
2386;SDS011;49473;50.772;8.768;2023-01-26T08:10:30;15.70;;;12.20;;
2386;SDS011;49473;50.772;8.768;2023-01-26T08:12:57;19.33;;;14.10;;
2386;SDS011;49473;50.772;8.768;2023-01-26T08:15:24;19.60;;;12.87;;
2386;SDS011;49473;50.772;8.768;2023-01-26T08:17:53;18.03;;;11.60;;
2386;SDS011;49473;50.772;8.768;2023-01-26T08:20:19;16.10;;;11.60;;
2386;SDS011;49473;50.772;8.768;2023-01-26T08:22:46;16.53;;;11.37;;
2386;SDS011;49473;50.772;8.768;2023-01-26T08:25:13;15.50;;;10.23;;
2386;SDS011;49473;50.772;8.768;2023-01-26T08:27:40;23.00;;;13.10;;
2386;SDS011;49473;50.772;8.768;2023-01-26T08:30:07;20.07;;;15.00;;
2386;SDS011;49473;50.772;8.768;2023-01-26T08:32:34;17.97;;;12.53;;
2386;SDS011;49473;50.772;8.768;2023-01-26T08:35:03;18.57;;;12.37;;
2386;SDS011;49473;50.772;8.768;2023-01-26T08:37:30;19.80;;;15.30;;
2386;SDS011;49473;50.772;8.768;2023-01-26T08:39:59;24.37;;;16.53;;
2386;SDS011;49473;50.772;8.768;2023-01-26T08:42:25;21.10;;;14.03;;
2386;SDS011;49473;50.772;8.768;2023-01-26T08:44:52;23.37;;;14.50;;
2386;SDS011;49473;50.772;8.768;2023-01-26T08:47:19;20.37;;;14.43;;
2386;SDS011;49473;50.772;8.768;2023-01-26T08:49:46;19.30;;;13.80;;
2386;SDS011;49473;50.772;8.768;2023-01-26T08:52:14;22.57;;;14.00;;
2386;SDS011;49473;50.772;8.768;2023-01-26T08:54:40;23.67;;;15.30;;
2386;SDS011;49473;50.772;8.768;2023-01-26T08:57:07;27.17;;;17.77;;
2386;SDS011;49473;50.772;8.768;2023-01-26T08:59:34;25.00;;;16.33;;
2386;SDS011;49473;50.772;8.768;2023-01-26T09:02:01;25.13;;;13.63;;
2386;SDS011;49473;50.772;8.768;2023-01-26T09:04:27;23.87;;;15.60;;
2386;SDS011;49473;50.772;8.768;2023-01-26T09:06:54;21.40;;;13.63;;
2386;SDS011;49473;50.772;8.768;2023-01-26T09:09:22;20.73;;;13.70;;
2386;SDS011;49473;50.772;8.768;2023-01-26T09:11:49;21.00;;;13.97;;
2386;SDS011;49473;50.772;8.768;2023-01-26T09:14:15;22.57;;;15.10;;
2386;SDS011;49473;50.772;8.768;2023-01-26T09:16:42;23.60;;;16.20;;
2386;SDS011;49473;50.772;8.768;2023-01-26T09:19:09;27.63;;;17.17;;
2386;SDS011;49473;50.772;8.768;2023-01-26T09:21:35;22.23;;;15.63;;
2386;SDS011;49473;50.772;8.768;2023-01-26T09:24:02;26.47;;;16.50;;
2386;SDS011;49473;50.772;8.768;2023-01-26T09:26:31;22.80;;;14.60;;
2386;SDS011;49473;50.772;8.768;2023-01-26T09:28:57;24.00;;;14.17;;
2386;SDS011;49473;50.772;8.768;2023-01-26T09:31:24;19.93;;;13.00;;
2386;SDS011;49473;50.772;8.768;2023-01-26T09:33:51;22.63;;;15.20;;
2386;SDS011;49473;50.772;8.768;2023-01-26T09:36:18;24.93;;;15.07;;
2386;SDS011;49473;50.772;8.768;2023-01-26T09:38:45;26.17;;;16.70;;
2386;SDS011;49473;50.772;8.768;2023-01-26T09:41:17;23.47;;;14.57;;
2386;SDS011;49473;50.772;8.768;2023-01-26T09:43:56;20.70;;;14.20;;
2386;SDS011;49473;50.772;8.768;2023-01-26T09:46:30;20.87;;;14.07;;
2386;SDS011;49473;50.772;8.768;2023-01-26T09:49:06;22.40;;;14.53;;
2386;SDS011;49473;50.772;8.768;2023-01-26T09:51:36;21.07;;;13.30;;
2386;SDS011;49473;50.772;8.768;2023-01-26T09:54:08;22.60;;;13.87;;
2386;SDS011;49473;50.772;8.768;2023-01-26T09:56:45;22.53;;;14.57;;
2386;SDS011;49473;50.772;8.768;2023-01-26T09:59:17;19.03;;;13.50;;
2386;SDS011;49473;50.772;8.768;2023-01-26T10:01:51;21.77;;;13.57;;
2386;SDS011;49473;50.772;8.768;2023-01-26T10:04:25;23.93;;;14.10;;
2386;SDS011;49473;50.772;8.768;2023-01-26T10:06:57;27.53;;;16.27;;
2386;SDS011;49473;50.772;8.768;2023-01-26T10:09:27;24.60;;;14.70;;
2386;SDS011;49473;50.772;8.768;2023-01-26T10:11:59;22.43;;;13.90;;
2386;SDS011;49473;50.772;8.768;2023-01-26T10:14:32;23.33;;;13.63;;
2386;SDS011;49473;50.772;8.768;2023-01-26T10:17:02;23.43;;;14.70;;
2386;SDS011;49473;50.772;8.768;2023-01-26T10:19:31;22.03;;;13.63;;
2386;SDS011;49473;50.772;8.768;2023-01-26T10:22:02;20.57;;;14.10;;
2386;SDS011;49473;50.772;8.768;2023-01-26T10:24:32;21.97;;;13.63;;
2386;SDS011;49473;50.772;8.768;2023-01-26T10:26:59;25.80;;;13.77;;
2386;SDS011;49473;50.772;8.768;2023-01-26T10:29:26;25.07;;;15.37;;
2386;SDS011;49473;50.772;8.768;2023-01-26T10:31:54;22.40;;;14.87;;
2386;SDS011;49473;50.772;8.768;2023-01-26T10:34:21;27.60;;;14.90;;
2386;SDS011;49473;50.772;8.768;2023-01-26T10:36:50;26.97;;;15.30;;
2386;SDS011;49473;50.772;8.768;2023-01-26T10:39:24;24.57;;;14.87;;
2386;SDS011;49473;50.772;8.768;2023-01-26T10:41:55;20.10;;;14.57;;
2386;SDS011;49473;50.772;8.768;2023-01-26T10:44:24;24.00;;;15.30;;
2386;SDS011;49473;50.772;8.768;2023-01-26T10:47:02;20.23;;;13.90;;
2386;SDS011;49473;50.772;8.768;2023-01-26T10:49:31;22.40;;;14.30;;
2386;SDS011;49473;50.772;8.768;2023-01-26T10:52:05;23.83;;;14.70;;
2386;SDS011;49473;50.772;8.768;2023-01-26T10:54:34;22.10;;;14.00;;
2386;SDS011;49473;50.772;8.768;2023-01-26T10:57:02;19.77;;;14.30;;
2386;SDS011;49473;50.772;8.768;2023-01-26T10:59:32;21.70;;;13.90;;
2386;SDS011;49473;50.772;8.768;2023-01-26T11:02:18;36.53;;;17.80;;
2386;SDS011;49473;50.772;8.768;2023-01-26T11:05:18;21.50;;;13.83;;
2386;SDS011;49473;50.772;8.768;2023-01-26T11:07:46;20.10;;;13.03;;
2386;SDS011;49473;50.772;8.768;2023-01-26T11:10:15;22.20;;;14.67;;
2386;SDS011;49473;50.772;8.768;2023-01-26T11:12:47;21.47;;;13.77;;
2386;SDS011;49473;50.772;8.768;2023-01-26T11:15:15;21.30;;;13.30;;
2386;SDS011;49473;50.772;8.768;2023-01-26T11:17:46;20.17;;;14.63;;
2386;SDS011;49473;50.772;8.768;2023-01-26T11:20:27;22.27;;;13.60;;
2386;SDS011;49473;50.772;8.768;2023-01-26T11:23:07;23.30;;;14.23;;
2386;SDS011;49473;50.772;8.768;2023-01-26T11:25:42;25.53;;;14.43;;
2386;SDS011;49473;50.772;8.768;2023-01-26T11:28:31;23.03;;;13.40;;
2386;SDS011;49473;50.772;8.768;2023-01-26T11:31:13;21.93;;;13.70;;
2386;SDS011;49473;50.772;8.768;2023-01-26T11:33:52;22.07;;;15.47;;
2386;SDS011;49473;50.772;8.768;2023-01-26T11:36:27;25.50;;;15.10;;
2386;SDS011;49473;50.772;8.768;2023-01-26T11:39:14;23.47;;;15.10;;
2386;SDS011;49473;50.772;8.768;2023-01-26T11:41:55;20.93;;;13.50;;
2386;SDS011;49473;50.772;8.768;2023-01-26T11:44:40;26.20;;;15.30;;
2386;SDS011;49473;50.772;8.768;2023-01-26T11:47:22;23.00;;;13.37;;
2386;SDS011;49473;50.772;8.768;2023-01-26T11:50:05;24.43;;;14.70;;
2386;SDS011;49473;50.772;8.768;2023-01-26T11:52:46;25.33;;;16.23;;
2386;SDS011;49473;50.772;8.768;2023-01-26T11:55:26;25.00;;;14.50;;
2386;SDS011;49473;50.772;8.768;2023-01-26T11:58:03;21.17;;;13.10;;
2386;SDS011;49473;50.772;8.768;2023-01-26T12:00:40;25.40;;;15.00;;
2386;SDS011;49473;50.772;8.768;2023-01-26T12:03:13;23.37;;;14.00;;
2386;SDS011;49473;50.772;8.768;2023-01-26T12:05:45;24.33;;;15.23;;
2386;SDS011;49473;50.772;8.768;2023-01-26T12:08:16;22.00;;;14.07;;
2386;SDS011;49473;50.772;8.768;2023-01-26T12:11:02;23.30;;;14.03;;
2386;SDS011;49473;50.772;8.768;2023-01-26T12:13:45;22.37;;;14.43;;
2386;SDS011;49473;50.772;8.768;2023-01-26T12:16:19;23.60;;;15.63;;
2386;SDS011;49473;50.772;8.768;2023-01-26T12:18:53;25.10;;;15.67;;
2386;SDS011;49473;50.772;8.768;2023-01-26T12:21:27;22.80;;;14.47;;
2386;SDS011;49473;50.772;8.768;2023-01-26T12:23:59;24.80;;;14.98;;
2386;SDS011;49473;50.772;8.768;2023-01-26T12:26:30;20.85;;;13.73;;
2386;SDS011;49473;50.772;8.768;2023-01-26T12:29:00;21.53;;;14.53;;
2386;SDS011;49473;50.772;8.768;2023-01-26T12:31:34;24.40;;;14.67;;
2386;SDS011;49473;50.772;8.768;2023-01-26T12:34:07;23.93;;;14.70;;
2386;SDS011;49473;50.772;8.768;2023-01-26T12:36:39;21.40;;;14.23;;
2386;SDS011;49473;50.772;8.768;2023-01-26T12:39:13;21.27;;;14.27;;
2386;SDS011;49473;50.772;8.768;2023-01-26T12:41:57;24.67;;;15.20;;
2386;SDS011;49473;50.772;8.768;2023-01-26T12:44:31;20.47;;;13.70;;
2386;SDS011;49473;50.772;8.768;2023-01-26T12:47:03;23.50;;;13.90;;
2386;SDS011;49473;50.772;8.768;2023-01-26T12:49:38;24.80;;;14.87;;
2386;SDS011;49473;50.772;8.768;2023-01-26T12:52:11;26.40;;;15.07;;
2386;SDS011;49473;50.772;8.768;2023-01-26T12:54:43;21.60;;;14.80;;
2386;SDS011;49473;50.772;8.768;2023-01-26T12:57:17;21.27;;;13.83;;
2386;SDS011;49473;50.772;8.768;2023-01-26T12:59:46;25.80;;;15.83;;
2386;SDS011;49473;50.772;8.768;2023-01-26T13:02:22;23.07;;;14.63;;
2386;SDS011;49473;50.772;8.768;2023-01-26T13:04:53;24.23;;;14.30;;
2386;SDS011;49473;50.772;8.768;2023-01-26T13:07:26;20.90;;;13.30;;
2386;SDS011;49473;50.772;8.768;2023-01-26T13:10:06;26.83;;;15.50;;
2386;SDS011;49473;50.772;8.768;2023-01-26T13:12:50;25.40;;;14.47;;
2386;SDS011;49473;50.772;8.768;2023-01-26T13:15:19;24.27;;;14.40;;
2386;SDS011;49473;50.772;8.768;2023-01-26T13:17:49;21.70;;;15.10;;
2386;SDS011;49473;50.772;8.768;2023-01-26T13:20:22;23.23;;;14.87;;
2386;SDS011;49473;50.772;8.768;2023-01-26T13:35:22;22.50;;;14.30;;
2386;SDS011;49473;50.772;8.768;2023-01-26T13:37:52;21.17;;;13.97;;
2386;SDS011;49473;50.772;8.768;2023-01-26T13:40:25;20.90;;;13.20;;
2386;SDS011;49473;50.772;8.768;2023-01-26T13:42:56;23.57;;;16.20;;
2386;SDS011;49473;50.772;8.768;2023-01-26T13:45:30;23.77;;;16.03;;
2386;SDS011;49473;50.772;8.768;2023-01-26T13:48:01;25.27;;;16.90;;
2386;SDS011;49473;50.772;8.768;2023-01-26T13:50:35;23.00;;;14.57;;
2386;SDS011;49473;50.772;8.768;2023-01-26T13:55:55;27.33;;;14.73;;
2386;SDS011;49473;50.772;8.768;2023-01-26T13:58:25;22.60;;;14.07;;
2386;SDS011;49473;50.772;8.768;2023-01-26T14:00:57;29.10;;;18.07;;
2386;SDS011;49473;50.772;8.768;2023-01-26T14:03:25;28.23;;;19.73;;
2386;SDS011;49473;50.772;8.768;2023-01-26T14:05:53;24.73;;;16.63;;
2386;SDS011;49473;50.772;8.768;2023-01-26T14:08:22;28.67;;;14.83;;
2386;SDS011;49473;50.772;8.768;2023-01-26T14:10:49;23.20;;;13.73;;
2386;SDS011;49473;50.772;8.768;2023-01-26T14:13:18;23.57;;;14.47;;
2386;SDS011;49473;50.772;8.768;2023-01-26T14:15:54;24.57;;;15.10;;
2386;SDS011;49473;50.772;8.768;2023-01-26T14:18:23;23.83;;;14.90;;
2386;SDS011;49473;50.772;8.768;2023-01-26T14:20:56;26.20;;;15.57;;
2386;SDS011;49473;50.772;8.768;2023-01-26T14:23:25;25.03;;;16.00;;
2386;SDS011;49473;50.772;8.768;2023-01-26T14:25:55;28.43;;;15.50;;
2386;SDS011;49473;50.772;8.768;2023-01-26T14:28:24;24.10;;;15.47;;
2386;SDS011;49473;50.772;8.768;2023-01-26T14:30:56;25.53;;;17.13;;
2386;SDS011;49473;50.772;8.768;2023-01-26T14:33:28;25.20;;;15.50;;
2386;SDS011;49473;50.772;8.768;2023-01-26T14:35:56;26.65;;;16.17;;
2386;SDS011;49473;50.772;8.768;2023-01-26T14:38:24;25.47;;;15.30;;
2386;SDS011;49473;50.772;8.768;2023-01-26T14:40:54;26.07;;;16.10;;
2386;SDS011;49473;50.772;8.768;2023-01-26T14:43:22;24.87;;;14.17;;
2386;SDS011;49473;50.772;8.768;2023-01-26T14:45:51;25.30;;;15.33;;
2386;SDS011;49473;50.772;8.768;2023-01-26T14:48:24;26.40;;;15.55;;
2386;SDS011;49473;50.772;8.768;2023-01-26T14:50:56;29.03;;;17.80;;
2386;SDS011;49473;50.772;8.768;2023-01-26T14:53:23;26.80;;;15.43;;
2386;SDS011;49473;50.772;8.768;2023-01-26T14:55:51;27.10;;;17.53;;
2386;SDS011;49473;50.772;8.768;2023-01-26T14:58:19;24.93;;;15.57;;
2386;SDS011;49473;50.772;8.768;2023-01-26T15:00:49;26.07;;;16.23;;
2386;SDS011;49473;50.772;8.768;2023-01-26T15:03:19;29.50;;;16.20;;
2386;SDS011;49473;50.772;8.768;2023-01-26T15:05:56;25.00;;;16.20;;
2386;SDS011;49473;50.772;8.768;2023-01-26T15:08:29;22.98;;;15.52;;
2386;SDS011;49473;50.772;8.768;2023-01-26T15:10:57;25.25;;;16.15;;
2386;SDS011;49473;50.772;8.768;2023-01-26T15:13:38;27.73;;;15.97;;
2386;SDS011;49473;50.772;8.768;2023-01-26T15:16:12;27.47;;;18.70;;
2386;SDS011;49473;50.772;8.768;2023-01-26T15:18:40;23.33;;;14.93;;
2386;SDS011;49473;50.772;8.768;2023-01-26T15:21:12;24.40;;;16.37;;